Time;durP1;ratioP1;P1;durP2;ratioP2;P2;SDS_P1;SDS_P2;PMS_P1;PMS_P2;Temp;Humidity;BMP_temperature;BMP_pressure;BME280_temperature;BME280_humidity;BME280_pressure;Samples;Min_cycle;Max_cycle;Signal;HPM_P1;HPM_P2
2023/09/04 00:01:37;;;;;;;2.55;0.80;;;13.80;99.90;;;;;;5041738;28;20033;-51
2023/09/04 00:04:05;;;;;;;1.05;0.95;;;13.70;99.90;;;;;;5049572;28;20033;-53
2023/09/04 00:06:31;;;;;;;2.47;1.42;;;13.70;99.90;;;;;;5043781;28;20499;-53
2023/09/04 00:08:59;;;;;;;1.60;1.50;;;13.70;99.90;;;;;;5033345;28;20116;-54
2023/09/04 00:11:27;;;;;;;2.53;1.67;;;13.70;99.90;;;;;;5032400;28;20046;-56
2023/09/04 00:13:53;;;;;;;2.70;1.48;;;13.70;99.90;;;;;;5050678;28;20083;-54
2023/09/04 00:16:18;;;;;;;2.28;2.08;;;13.70;99.90;;;;;;5032688;28;20072;-51
2023/09/04 00:18:44;;;;;;;1.67;1.58;;;13.70;99.90;;;;;;5050805;28;20033;-53
2023/09/04 00:21:09;;;;;;;2.28;2.10;;;13.60;99.90;;;;;;5050237;28;20065;-54
2023/09/04 00:23:35;;;;;;;3.58;2.40;;;13.70;99.90;;;;;;5049392;28;20095;-52
2023/09/04 00:26:01;;;;;;;3.55;1.83;;;13.70;99.90;;;;;;5052093;28;20068;-53
2023/09/04 00:28:26;;;;;;;1.40;1.25;;;13.70;99.90;;;;;;5048091;28;20375;-52
2023/09/04 00:30:52;;;;;;;1.45;1.27;;;13.70;99.90;;;;;;5051594;28;20064;-53
2023/09/04 00:33:17;;;;;;;1.95;1.73;;;13.60;99.90;;;;;;5049062;28;20040;-54
2023/09/04 00:35:43;;;;;;;2.97;2.25;;;13.60;99.90;;;;;;5046829;28;20037;-54
2023/09/04 00:38:09;;;;;;;2.35;1.70;;;13.70;99.90;;;;;;5049054;28;20037;-54
2023/09/04 00:40:34;;;;;;;5.30;2.53;;;13.60;99.90;;;;;;5051643;28;20079;-53
2023/09/04 00:43:00;;;;;;;3.95;1.73;;;13.60;99.90;;;;;;5049571;28;20565;-51
2023/09/04 00:45:26;;;;;;;4.03;2.10;;;13.50;99.90;;;;;;5052002;28;20116;-53
2023/09/04 00:47:52;;;;;;;3.20;2.42;;;13.50;99.90;;;;;;5049703;28;20056;-54
2023/09/04 00:50:23;;;;;;;3.67;3.38;;;13.50;99.90;;;;;;5051634;28;20036;-55
2023/09/04 00:52:59;;;;;;;3.25;2.95;;;13.50;99.90;;;;;;5051124;28;20051;-54
2023/09/04 00:55:25;;;;;;;4.47;2.80;;;13.60;99.90;;;;;;5051586;28;20041;-53
2023/09/04 00:57:52;;;;;;;1.63;1.38;;;13.60;99.90;;;;;;5050723;28;20556;-52
2023/09/04 01:00:22;;;;;;;2.00;1.90;;;13.60;99.90;;;;;;5051354;28;20469;-54
2023/09/04 01:02:47;;;;;;;2.40;2.03;;;13.50;99.90;;;;;;5043625;28;20096;-56
2023/09/04 01:05:13;;;;;;;5.90;1.55;;;13.40;99.90;;;;;;5051341;28;20048;-53
2023/09/04 01:07:41;;;;;;;3.85;1.88;;;13.30;99.90;;;;;;5044791;28;20040;-53
2023/09/04 01:10:08;;;;;;;5.50;2.58;;;13.20;99.90;;;;;;5050883;28;20044;-51
2023/09/04 01:12:45;;;;;;;3.47;2.80;;;13.10;99.90;;;;;;5050380;28;20516;-56
2023/09/04 01:15:12;;;;;;;11.95;2.92;;;13.00;99.90;;;;;;5051429;28;20044;-54
2023/09/04 01:17:38;;;;;;;6.55;2.55;;;12.90;99.90;;;;;;5042892;28;20051;-53
2023/09/04 01:20:22;;;;;;;;;;;12.80;99.90;;;;;;5040178;28;20078;-54
2023/09/04 01:22:48;;;;;;;11.02;1.15;;;12.70;99.90;;;;;;5041298;28;19976;-52
2023/09/04 01:25:15;;;;;;;0.30;0.20;;;12.70;99.90;;;;;;5044548;28;20029;-54
2023/09/04 01:27:57;;;;;;;0.40;0.32;;;12.70;99.90;;;;;;5028534;28;20107;-53
2023/09/04 01:30:41;;;;;;;0.40;0.30;;;12.70;99.90;;;;;;5050506;28;20045;-55
2023/09/04 01:33:11;;;;;;;3.30;1.10;;;12.80;99.90;;;;;;5046983;28;20041;-54
2023/09/04 01:35:37;;;;;;;1.75;0.60;;;12.80;99.90;;;;;;5050618;28;20044;-51
2023/09/04 01:38:03;;;;;;;0.70;0.68;;;12.90;99.90;;;;;;5048472;28;20051;-54
2023/09/04 01:40:29;;;;;;;;;;;12.90;99.90;;;;;;5050488;28;20059;-53
2023/09/04 01:42:54;;;;;;;2.00;1.00;;;12.90;99.90;;;;;;5048336;28;20375;-53
2023/09/04 01:45:20;;;;;;;3.17;2.58;;;12.90;99.90;;;;;;5050410;28;20043;-55
2023/09/04 01:47:46;;;;;;;2.63;1.73;;;13.00;99.90;;;;;;5050129;28;20072;-53
2023/09/04 01:50:12;;;;;;;3.63;1.02;;;13.00;99.90;;;;;;5046398;28;20068;-51
2023/09/04 01:52:38;;;;;;;1.23;1.13;;;13.00;99.90;;;;;;5050584;28;20072;-51
2023/09/04 01:55:04;;;;;;;2.35;1.35;;;13.00;99.90;;;;;;5049803;28;20033;-52
2023/09/04 01:57:29;;;;;;;2.03;1.92;;;12.80;99.90;;;;;;5050730;28;20044;-51
2023/09/04 01:59:55;;;;;;;2.20;1.17;;;12.80;99.90;;;;;;5042352;28;20036;-52
2023/09/04 02:02:20;;;;;;;5.10;1.07;;;12.70;99.90;;;;;;5050615;28;20191;-56
2023/09/04 02:04:46;;;;;;;0.80;0.80;;;12.60;99.90;;;;;;5042543;28;20286;-57
2023/09/04 02:07:12;;;;;;;2.75;0.70;;;12.50;99.90;;;;;;5050388;28;20041;-53
2023/09/04 02:09:37;;;;;;;1.05;0.50;;;12.40;99.90;;;;;;5041647;28;20525;-51
2023/09/04 02:12:03;;;;;;;0.65;0.43;;;12.40;99.90;;;;;;5050554;28;20029;-53
2023/09/04 02:14:29;;;;;;;1.35;0.60;;;12.30;99.90;;;;;;5039754;28;20040;-52
2023/09/04 02:16:54;;;;;;;0.88;0.88;;;12.30;99.90;;;;;;5028789;28;20518;-56
2023/09/04 02:19:20;;;;;;;1.77;1.58;;;12.30;99.90;;;;;;5036374;28;20079;-52
2023/09/04 02:21:45;;;;;;;2.80;1.17;;;12.40;99.90;;;;;;5050220;28;20397;-54
2023/09/04 02:24:11;;;;;;;2.42;2.05;;;12.40;99.90;;;;;;5044556;28;20045;-51
2023/09/04 02:26:37;;;;;;;2.42;1.80;;;12.40;99.90;;;;;;5049778;28;20044;-54
2023/09/04 02:29:02;;;;;;;2.78;2.58;;;12.50;99.90;;;;;;5044289;28;20517;-54
2023/09/04 02:31:28;;;;;;;5.68;3.72;;;12.50;99.90;;;;;;5049458;28;20453;-54
2023/09/04 02:33:53;;;;;;;4.85;4.45;;;12.50;99.90;;;;;;5045770;28;20083;-52
2023/09/04 02:36:20;;;;;;;5.57;5.07;;;12.60;99.90;;;;;;5049369;28;20398;-55
2023/09/04 02:38:45;;;;;;;9.93;6.88;;;12.60;99.90;;;;;;5045207;28;20033;-51
2023/09/04 02:41:11;;;;;;;5.85;5.30;;;12.70;99.90;;;;;;5049771;28;20040;-57
2023/09/04 02:43:36;;;;;;;5.38;4.97;;;12.70;99.90;;;;;;5047637;28;20051;-55
2023/09/04 02:46:02;;;;;;;4.03;3.72;;;12.80;99.90;;;;;;5049360;28;20064;-52
2023/09/04 02:48:27;;;;;;;7.40;6.53;;;12.80;99.90;;;;;;5047799;28;20056;-53
2023/09/04 02:50:59;;;;;;;6.32;5.60;;;12.80;99.90;;;;;;5048361;28;20086;-56
2023/09/04 02:53:27;;;;;;;3.13;2.88;;;12.80;99.90;;;;;;5035249;28;20064;-52
2023/09/04 02:55:52;;;;;;;1.92;1.83;;;12.80;99.90;;;;;;5047978;28;20049;-52
2023/09/04 02:58:18;;;;;;;2.65;1.90;;;12.70;99.90;;;;;;5049249;28;20044;-51
2023/09/04 03:00:44;;;;;;;2.42;2.22;;;12.60;99.90;;;;;;5048208;28;20048;-52
2023/09/04 03:03:10;;;;;;;2.45;1.52;;;12.60;99.90;;;;;;5049620;28;20033;-55
2023/09/04 03:05:36;;;;;;;1.83;1.73;;;12.60;99.90;;;;;;5047779;28;20408;-53
2023/09/04 03:08:02;;;;;;;1.85;1.75;;;12.50;99.90;;;;;;5028985;28;20094;-55
2023/09/04 03:10:30;;;;;;;5.53;3.88;;;12.50;99.90;;;;;;5042835;28;20588;-51
2023/09/04 03:12:56;;;;;;;2.45;2.35;;;12.50;99.90;;;;;;5049310;28;20037;-54
2023/09/04 03:15:21;;;;;;;2.20;2.00;;;12.50;99.90;;;;;;5041022;28;20037;-53
2023/09/04 03:17:47;;;;;;;1.95;1.85;;;12.40;99.90;;;;;;5049137;28;20045;-54
2023/09/04 03:20:19;;;;;;;4.13;3.83;;;12.40;99.90;;;;;;5046086;28;20387;-55
2023/09/04 03:22:45;;;;;;;5.88;5.38;;;12.30;99.90;;;;;;5049220;28;20044;-52
2023/09/04 03:25:11;;;;;;;5.50;5.00;;;12.30;99.90;;;;;;5046643;28;20036;-51
2023/09/04 03:27:36;;;;;;;5.43;4.75;;;12.20;99.90;;;;;;5049575;28;20076;-53
2023/09/04 03:30:02;;;;;;;5.45;4.95;;;12.20;99.90;;;;;;5047914;28;20041;-53
2023/09/04 03:32:28;;;;;;;5.72;3.65;;;12.20;99.90;;;;;;5049855;28;20124;-53
2023/09/04 03:34:53;;;;;;;4.03;3.72;;;12.20;99.90;;;;;;5045465;28;20045;-55
2023/09/04 03:37:19;;;;;;;3.22;3.03;;;12.20;99.90;;;;;;5048934;28;20060;-53
2023/09/04 03:39:45;;;;;;;3.63;1.85;;;12.20;99.90;;;;;;5048444;28;20041;-53
2023/09/04 03:42:10;;;;;;;7.10;2.70;;;12.20;99.90;;;;;;5040340;28;20402;-54
2023/09/04 03:44:36;;;;;;;2.67;2.00;;;12.10;99.90;;;;;;5033618;28;20037;-54
2023/09/04 03:47:02;;;;;;;2.90;2.03;;;11.90;99.90;;;;;;5044113;28;20045;-52
2023/09/04 03:49:28;;;;;;;2.50;2.40;;;11.80;99.90;;;;;;5052038;28;20128;-54
2023/09/04 03:51:54;;;;;;;2.85;2.65;;;11.70;99.90;;;;;;5051174;28;20111;-52
2023/09/04 03:54:19;;;;;;;11.88;1.60;;;11.60;99.90;;;;;;5052147;28;20048;-52
2023/09/04 03:56:45;;;;;;;2.85;1.05;;;11.50;99.90;;;;;;5049767;28;20455;-54
2023/09/04 03:59:10;;;;;;;1.30;0.35;;;11.50;99.90;;;;;;5051213;28;20037;-55
2023/09/04 04:01:36;;;;;;;2.92;0.60;;;11.50;99.90;;;;;;5048581;28;20041;-51
2023/09/04 04:04:01;;;;;;;6.22;1.00;;;11.50;99.90;;;;;;5033085;28;20155;-54
2023/09/04 04:06:27;;;;;;;0.80;0.70;;;11.50;99.90;;;;;;5048197;28;20142;-55
2023/09/04 04:08:55;;;;;;;1.67;0.80;;;11.40;99.90;;;;;;5052682;28;20065;-54
2023/09/04 04:11:22;;;;;;;3.05;0.93;;;11.40;99.90;;;;;;5047186;28;20295;-53
2023/09/04 04:13:48;;;;;;;1.20;1.10;;;11.50;99.90;;;;;;5052857;28;20044;-51
2023/09/04 04:16:13;;;;;;;0.82;0.80;;;11.50;99.90;;;;;;5047657;28;20082;-51
2023/09/04 04:18:39;;;;;;;7.90;1.35;;;11.50;99.90;;;;;;5038358;28;20561;-54
2023/09/04 04:21:05;;;;;;;2.65;0.90;;;11.50;99.90;;;;;;5037012;28;20052;-55
2023/09/04 04:23:31;;;;;;;1.70;1.27;;;11.40;99.90;;;;;;5051700;28;20044;-53
2023/09/04 04:25:56;;;;;;;1.35;1.23;;;11.40;99.90;;;;;;5047025;28;20065;-55
2023/09/04 04:28:23;;;;;;;1.45;1.35;;;11.30;99.90;;;;;;5052512;28;20688;-52
2023/09/04 04:30:48;;;;;;;1.70;1.60;;;11.30;99.90;;;;;;5048811;28;20056;-55
2023/09/04 04:33:14;;;;;;;4.72;1.98;;;11.20;99.90;;;;;;5052163;28;20033;-53
2023/09/04 04:35:40;;;;;;;1.38;1.10;;;11.30;99.90;;;;;;5043521;28;20053;-52
2023/09/04 04:38:06;;;;;;;3.58;1.40;;;11.30;99.90;;;;;;5051570;28;20498;-51
2023/09/04 04:40:32;;;;;;;2.42;1.20;;;11.30;99.90;;;;;;5033512;28;20036;-51
2023/09/04 04:42:58;;;;;;;1.38;1.27;;;11.20;99.90;;;;;;5045316;28;20029;-53
2023/09/04 04:45:24;;;;;;;0.80;0.73;;;11.30;99.90;;;;;;5034008;28;20091;-52
2023/09/04 04:47:49;;;;;;;0.90;0.80;;;11.30;99.90;;;;;;5050633;28;20121;-54
2023/09/04 04:50:15;;;;;;;4.13;2.25;;;11.30;99.90;;;;;;5033488;28;20329;-53
2023/09/04 04:52:41;;;;;;;4.68;1.17;;;11.30;99.90;;;;;;5051572;28;20098;-53
2023/09/04 04:55:07;;;;;;;5.88;1.50;;;11.40;99.90;;;;;;5045993;28;20049;-53
2023/09/04 04:57:33;;;;;;;1.92;1.52;;;11.40;99.90;;;;;;5039334;28;20091;-52
2023/09/04 04:59:59;;;;;;;5.75;2.08;;;11.40;99.90;;;;;;5050995;28;20695;-54
2023/09/04 05:02:25;;;;;;;5.35;2.63;;;11.40;99.90;;;;;;5031957;28;20120;-52
2023/09/04 05:04:50;;;;;;;3.30;2.92;;;11.50;99.90;;;;;;5051716;28;20184;-55
2023/09/04 05:07:16;;;;;;;3.55;3.35;;;11.50;99.90;;;;;;5050888;28;20033;-52
2023/09/04 05:09:42;;;;;;;9.88;4.90;;;11.60;99.90;;;;;;5050929;28;20095;-51
2023/09/04 05:12:07;;;;;;;8.13;4.13;;;11.60;99.90;;;;;;5048133;28;20486;-54
2023/09/04 05:14:33;;;;;;;5.00;2.42;;;11.70;99.90;;;;;;5051552;28;20055;-55
2023/09/04 05:16:59;;;;;;;1.85;0.57;;;11.80;99.90;;;;;;5047223;28;20116;-55
2023/09/04 05:19:25;;;;;;;2.22;1.10;;;11.80;99.90;;;;;;5050664;28;20036;-54
2023/09/04 05:21:51;;;;;;;6.82;1.70;;;11.70;99.90;;;;;;5050936;28;20059;-52
2023/09/04 05:24:16;;;;;;;1.67;1.20;;;11.70;99.90;;;;;;5051591;28;20033;-51
2023/09/04 05:26:42;;;;;;;7.10;2.65;;;11.70;99.90;;;;;;5048162;28;20048;-54
2023/09/04 05:29:08;;;;;;;4.13;3.83;;;11.70;99.90;;;;;;5050151;28;20040;-55
2023/09/04 05:31:33;;;;;;;4.35;2.60;;;11.80;99.90;;;;;;5044997;28;20042;-51
2023/09/04 05:33:59;;;;;;;2.20;2.00;;;11.90;99.90;;;;;;5049171;28;20604;-51
2023/09/04 05:36:24;;;;;;;2.40;2.20;;;11.90;99.90;;;;;;5050764;28;20045;-51
2023/09/04 05:38:50;;;;;;;2.97;1.67;;;12.00;99.90;;;;;;5042696;28;20038;-57
2023/09/04 05:41:16;;;;;;;1.43;1.33;;;12.00;99.90;;;;;;5050657;28;20271;-55
2023/09/04 05:43:41;;;;;;;1.52;1.42;;;12.00;99.90;;;;;;5044458;28;20322;-53
2023/09/04 05:46:07;;;;;;;3.42;1.38;;;12.00;99.90;;;;;;5038280;28;20025;-56
2023/09/04 05:48:34;;;;;;;1.30;1.20;;;12.10;99.90;;;;;;5035409;28;20053;-52
2023/09/04 05:51:00;;;;;;;2.60;2.40;;;12.20;99.90;;;;;;5035847;28;20279;-52
2023/09/04 05:53:26;;;;;;;6.57;2.83;;;12.20;99.90;;;;;;5041743;28;20518;-52
2023/09/04 05:56:09;;;;;;;3.70;3.40;;;12.30;99.90;;;;;;5041436;28;20033;-54
2023/09/04 05:58:43;;;;;;;3.58;2.80;;;12.40;99.90;;;;;;5047756;28;20041;-53
2023/09/04 06:01:09;;;;;;;2.78;2.58;;;12.60;99.90;;;;;;5045403;28;20452;-55
2023/09/04 06:03:35;;;;;;;2.85;2.20;;;12.70;99.90;;;;;;5049380;28;20045;-53
2023/09/04 06:06:00;;;;;;;3.58;3.28;;;12.80;99.90;;;;;;5048248;28;20122;-54
2023/09/04 06:08:26;;;;;;;5.78;5.30;;;12.90;99.90;;;;;;5048320;28;20040;-56
2023/09/04 06:10:51;;;;;;;10.00;6.28;;;13.10;99.90;;;;;;5046247;28;20037;-52
2023/09/04 06:13:17;;;;;;;7.40;6.80;;;13.20;99.90;;;;;;5045489;28;20076;-54
2023/09/04 06:15:43;;;;;;;8.68;7.85;;;13.40;99.90;;;;;;5049913;28;20482;-54
2023/09/04 06:18:08;;;;;;;12.18;9.55;;;13.60;99.90;;;;;;5050200;28;20040;-55
2023/09/04 06:20:34;;;;;;;12.20;11.00;;;13.80;99.90;;;;;;5049760;28;20040;-52
2023/09/04 06:23:01;;;;;;;12.82;11.20;;;14.00;99.90;;;;;;5044529;28;20672;-52
2023/09/04 06:25:27;;;;;;;11.98;10.85;;;14.20;99.90;;;;;;5038423;28;20064;-52
2023/09/04 06:27:52;;;;;;;12.20;11.07;;;14.30;99.90;;;;;;5029834;28;20041;-56
2023/09/04 06:30:18;;;;;;;14.90;11.88;;;14.40;99.90;;;;;;5029836;28;20414;-52
2023/09/04 06:32:43;;;;;;;12.93;11.50;;;14.60;99.90;;;;;;5041187;28;20094;-52
2023/09/04 06:35:09;;;;;;;12.38;11.18;;;14.70;99.90;;;;;;5048942;28;20044;-54
2023/09/04 06:37:35;;;;;;;14.65;13.15;;;14.90;99.90;;;;;;5043222;28;20572;-55
2023/09/04 06:40:02;;;;;;;13.13;11.10;;;15.00;99.90;;;;;;5017994;28;20071;-51
2023/09/04 06:42:27;;;;;;;9.63;8.65;;;15.10;99.90;;;;;;5038372;28;20736;-52
2023/09/04 06:44:53;;;;;;;14.95;13.55;;;15.30;99.90;;;;;;5034154;28;20112;-54
2023/09/04 06:47:18;;;;;;;15.30;13.23;;;15.30;99.90;;;;;;5044058;28;20489;-52
2023/09/04 06:49:44;;;;;;;15.25;13.75;;;15.40;99.90;;;;;;5040180;28;20037;-55
2023/09/04 06:52:09;;;;;;;15.32;13.50;;;15.50;99.90;;;;;;5038232;28;20075;-56
2023/09/04 06:54:35;;;;;;;16.55;14.57;;;15.50;99.90;;;;;;5038428;28;20086;-55
2023/09/04 06:57:02;;;;;;;14.57;13.07;;;15.60;99.90;;;;;;5042965;28;20041;-52
2023/09/04 06:59:27;;;;;;;16.20;14.10;;;15.60;99.90;;;;;;5047323;28;20079;-51
2023/09/04 07:01:53;;;;;;;14.63;13.20;;;15.70;99.90;;;;;;5050021;28;20068;-53
2023/09/04 07:04:18;;;;;;;17.33;14.68;;;15.80;99.90;;;;;;5039274;28;20064;-51
2023/09/04 07:06:44;;;;;;;15.18;13.75;;;15.90;99.90;;;;;;5033716;28;20037;-51
2023/09/04 07:09:10;;;;;;;15.63;14.00;;;15.90;99.90;;;;;;5040073;28;20043;-53
2023/09/04 07:11:36;;;;;;;18.02;15.35;;;16.00;99.90;;;;;;5037918;28;20120;-53
2023/09/04 07:14:02;;;;;;;17.63;15.85;;;16.00;99.90;;;;;;5043000;28;20120;-53
2023/09/04 07:16:28;;;;;;;19.58;15.32;;;16.10;99.90;;;;;;5038559;28;20064;-54
2023/09/04 07:18:54;;;;;;;16.02;14.52;;;16.20;99.90;;;;;;5038320;28;20490;-54
2023/09/04 07:21:20;;;;;;;19.83;14.45;;;16.30;99.90;;;;;;5034193;28;20041;-52
2023/09/04 07:23:46;;;;;;;17.27;14.52;;;16.40;99.90;;;;;;5035545;28;20084;-51
2023/09/04 07:26:11;;;;;;;16.27;14.70;;;16.50;99.90;;;;;;5024164;28;20052;-56
2023/09/04 07:28:37;;;;;;;14.90;13.45;;;16.60;99.90;;;;;;5046781;28;20060;-53
2023/09/04 07:31:29;;;;;;;12.52;11.40;;;16.70;99.90;;;;;;5035546;28;20041;-54
2023/09/04 07:33:55;;;;;;;13.07;11.90;;;16.90;99.90;;;;;;5043207;28;20052;-55
2023/09/04 07:36:20;;;;;;;11.07;10.07;;;16.90;99.90;;;;;;5040101;28;20041;-51
2023/09/04 07:38:48;;;;;;;11.95;10.70;;;17.00;99.90;;;;;;5043133;28;20410;-52
2023/09/04 07:41:13;;;;;;;10.43;9.40;;;17.10;99.90;;;;;;5043409;28;20394;-51
2023/09/04 07:43:39;;;;;;;10.65;9.43;;;17.20;99.90;;;;;;5043917;28;20055;-52
2023/09/04 07:46:05;;;;;;;9.75;8.80;;;17.40;99.90;;;;;;5039783;28;20029;-51
2023/09/04 07:48:31;;;;;;;10.23;9.07;;;17.50;99.90;;;;;;5042467;28;20509;-52
2023/09/04 07:50:59;;;;;;;10.10;9.15;;;17.50;99.90;;;;;;5042330;28;20068;-54
2023/09/04 07:53:25;;;;;;;8.88;8.07;;;17.60;99.90;;;;;;5040132;28;20041;-52
2023/09/04 07:55:51;;;;;;;11.20;8.43;;;17.80;99.90;;;;;;5042838;28;20090;-55
2023/09/04 07:58:17;;;;;;;9.20;8.27;;;17.90;99.90;;;;;;5049242;28;20048;-55
2023/09/04 08:00:47;;;;;;;8.57;7.88;;;18.00;99.90;;;;;;5049018;28;20033;-52
2023/09/04 08:03:13;;;;;;;11.10;8.45;;;18.20;99.90;;;;;;5029967;28;20166;-52
2023/09/04 08:05:39;;;;;;;9.02;7.35;;;18.30;99.90;;;;;;5045396;28;20072;-54
2023/09/04 08:08:09;;;;;;;7.38;5.93;;;18.40;99.90;;;;;;5048126;28;20036;-52
2023/09/04 08:10:40;;;;;;;6.85;6.15;;;18.60;99.90;;;;;;5034871;28;20461;-52
2023/09/04 08:13:11;;;;;;;7.32;5.20;;;18.70;99.90;;;;;;5042527;28;20099;-52
2023/09/04 08:15:37;;;;;;;5.82;5.32;;;18.70;99.90;;;;;;5039518;28;20455;-53
2023/09/04 08:18:03;;;;;;;6.10;5.60;;;18.80;99.90;;;;;;5042454;28;20080;-55
2023/09/04 08:20:28;;;;;;;6.93;5.63;;;18.90;99.90;;;;;;5041573;28;20490;-53
2023/09/04 08:22:54;;;;;;;6.35;5.75;;;18.90;99.90;;;;;;5048447;28;20033;-51
2023/09/04 08:25:20;;;;;;;6.10;5.60;;;19.10;99.90;;;;;;5048168;28;20111;-53
2023/09/04 08:27:45;;;;;;;7.45;6.65;;;19.10;99.90;;;;;;5048926;28;20556;-53
2023/09/04 08:30:11;;;;;;;6.38;5.78;;;19.20;99.90;;;;;;5051230;28;20095;-52
2023/09/04 08:32:37;;;;;;;5.43;4.82;;;19.30;99.90;;;;;;5052483;28;20055;-52
2023/09/04 08:35:04;;;;;;;5.53;5.15;;;19.40;99.90;;;;;;5051638;28;20033;-54
2023/09/04 08:37:29;;;;;;;7.07;6.10;;;19.50;99.90;;;;;;5052365;28;20076;-53
2023/09/04 08:39:55;;;;;;;5.43;5.03;;;19.60;99.90;;;;;;5051654;28;20071;-54
2023/09/04 08:42:20;;;;;;;;;;;19.70;99.90;;;;;;5052729;28;20428;-55
2023/09/04 08:44:48;;;;;;;6.45;4.10;;;19.80;99.90;;;;;;5052171;28;19917;-54
2023/09/04 08:47:15;;;;;;;5.55;4.90;;;19.90;99.90;;;;;;5052178;28;20080;-55
2023/09/04 08:49:42;;;;;;;5.90;4.65;;;20.00;99.90;;;;;;5050918;28;20099;-54
2023/09/04 08:52:08;;;;;;;7.90;4.55;;;20.10;99.90;;;;;;5052413;28;20048;-53
2023/09/04 08:54:34;;;;;;;3.80;3.33;;;20.20;99.90;;;;;;5052118;28;20513;-53
2023/09/04 08:57:00;;;;;;;4.90;4.50;;;20.30;99.90;;;;;;5051973;28;20043;-54
2023/09/04 08:59:25;;;;;;;6.65;4.03;;;20.40;99.90;;;;;;5051485;28;20087;-55
2023/09/04 09:01:52;;;;;;;;;;;20.50;99.90;;;;;;5052795;28;20049;-54
2023/09/04 09:04:20;;;;;;;5.03;4.30;;;20.50;99.90;;;;;;5051656;28;19920;-52
2023/09/04 09:06:48;;;;;;;4.63;3.55;;;20.60;99.90;;;;;;5051417;28;20111;-52
2023/09/04 09:09:15;;;;;;;5.93;3.30;;;20.70;99.90;;;;;;5051464;28;20041;-54
2023/09/04 09:11:44;;;;;;;7.25;3.42;;;20.80;99.90;;;;;;5051960;28;20051;-52
2023/09/04 09:14:12;;;;;;;5.30;3.08;;;20.90;99.90;;;;;;5052052;28;20033;-51
2023/09/04 09:16:38;;;;;;;4.50;3.40;;;21.00;99.90;;;;;;5050643;28;20120;-53
2023/09/04 09:19:03;;;;;;;;;;;21.10;99.90;;;;;;5034014;28;20550;-54
2023/09/04 09:21:32;;;;;;;6.20;3.78;;;21.10;99.90;;;;;;5051422;28;19916;-53
2023/09/04 09:24:09;;;;;;;5.78;3.80;;;21.20;99.90;;;;;;5051505;28;20045;-54
2023/09/04 09:26:37;;;;;;;3.97;3.38;;;21.30;99.90;;;;;;5027758;28;20048;-56
2023/09/04 09:29:03;;;;;;;3.50;3.00;;;21.30;99.90;;;;;;5043992;28;20651;-53
2023/09/04 09:31:30;;;;;;;2.95;2.75;;;21.40;99.90;;;;;;5041287;28;20041;-55
2023/09/04 09:33:56;;;;;;;5.43;3.35;;;21.50;99.90;;;;;;5047350;28;20378;-55
2023/09/04 09:36:23;;;;;;;5.40;2.47;;;21.50;99.90;;;;;;5044482;28;20037;-53
2023/09/04 09:38:48;;;;;;;3.40;2.97;;;21.60;99.90;;;;;;5045704;28;20064;-54
2023/09/04 09:41:14;;;;;;;;;;;21.60;99.90;;;;;;5044431;28;20525;-53
2023/09/04 09:43:42;;;;;;;3.17;2.38;;;21.70;99.90;;;;;;5045460;28;19970;-56
2023/09/04 09:46:09;;;;;;;4.70;2.10;;;21.80;99.90;;;;;;5050318;28;20040;-55
2023/09/04 09:48:36;;;;;;;4.93;2.65;;;21.90;99.90;;;;;;5051093;28;20120;-53
2023/09/04 09:51:06;;;;;;;4.13;1.98;;;22.00;99.90;;;;;;5050737;28;20041;-56
2023/09/04 09:53:52;;;;;;;2.38;2.17;;;22.00;99.90;;;;;;5051132;28;20036;-52
2023/09/04 09:56:19;;;;;;;2.95;2.22;;;22.10;99.90;;;;;;5049900;28;20041;-54
2023/09/04 09:58:49;;;;;;;2.83;2.35;;;22.10;99.90;;;;;;5050794;28;20041;-56
2023/09/04 10:01:18;;;;;;;4.28;2.30;;;22.20;99.90;;;;;;5048694;28;20068;-56
2023/09/04 10:03:46;;;;;;;3.08;2.78;;;22.20;99.90;;;;;;5050697;28;20029;-56
2023/09/04 10:06:22;;;;;;;2.60;2.28;;;22.20;99.90;;;;;;5030505;28;20042;-52
2023/09/04 10:08:51;;;;;;;2.28;1.88;;;22.20;99.90;;;;;;5048949;28;20045;-53
2023/09/04 10:11:17;;;;;;;5.05;1.98;;;22.30;99.90;;;;;;5050099;28;20524;-55
2023/09/04 10:14:15;;;;;;;6.13;1.75;;;22.40;99.90;;;;;;5050461;28;20127;-55
2023/09/04 10:16:46;;;;;;;2.17;1.95;;;22.50;99.90;;;;;;5049852;28;20061;-53
2023/09/04 10:19:13;;;;;;;3.08;1.92;;;22.50;99.90;;;;;;5045211;28;20041;-52
2023/09/04 10:21:46;;;;;;;2.53;2.20;;;22.60;99.90;;;;;;5045746;28;20037;-52
2023/09/04 10:24:13;;;;;;;3.03;1.73;;;22.60;99.90;;;;;;5050335;28;20028;-56
2023/09/04 10:26:52;;;;;;;4.13;1.52;;;22.60;99.90;;;;;;5049921;28;20110;-54
2023/09/04 10:29:25;;;;;;;2.33;1.80;;;22.70;99.90;;;;;;5049530;28;20041;-54
2023/09/04 10:31:51;;;;;;;2.08;1.50;;;22.80;99.90;;;;;;5049315;28;20124;-55
2023/09/04 10:34:17;;;;;;;0.90;0.90;;;22.80;99.90;;;;;;5042587;28;20040;-56
2023/09/04 10:36:43;;;;;;;;;;;22.90;99.90;;;;;;5047900;28;20041;-55
2023/09/04 10:39:08;;;;;;;5.65;1.45;;;22.90;99.90;;;;;;5040234;28;20307;-52
2023/09/04 10:41:35;;;;;;;;;;;22.90;99.90;;;;;;5044749;28;20398;-55
2023/09/04 10:44:00;;;;;;;1.88;1.10;;;22.90;99.90;;;;;;5048217;28;20204;-54
2023/09/04 10:46:26;;;;;;;1.83;1.08;;;22.90;99.90;;;;;;5049793;28;20043;-53
2023/09/04 10:48:53;;;;;;;3.20;1.58;;;23.00;99.90;;;;;;5049359;28;20040;-52
2023/09/04 10:51:37;;;;;;;1.40;1.30;;;23.10;99.90;;;;;;5042567;28;20029;-54
2023/09/04 10:54:17;;;;;;;2.95;0.90;;;23.20;99.90;;;;;;5046617;28;20742;-55
2023/09/04 10:56:59;;;;;;;0.85;0.60;;;23.30;99.90;;;;;;5048215;28;20045;-55
2023/09/04 10:59:26;;;;;;;2.15;0.82;;;23.30;99.90;;;;;;5047961;28;20045;-54
2023/09/04 11:01:52;;;;;;;2.17;0.77;;;23.40;99.90;;;;;;5049803;28;20037;-54
2023/09/04 11:04:32;;;;;;;1.70;0.75;;;23.50;99.90;;;;;;5047539;28;20060;-54
2023/09/04 11:07:19;;;;;;;3.40;0.63;;;23.50;99.90;;;;;;5044642;28;20137;-55
2023/09/04 11:09:45;;;;;;;2.35;0.55;;;23.50;99.90;;;;;;5033797;28;20065;-53
2023/09/04 11:12:18;;;;;;;1.98;0.80;;;23.60;99.90;;;;;;5030131;28;20518;-56
2023/09/04 11:14:45;;;;;;;3.65;1.13;;;23.60;99.90;;;;;;5036597;28;20041;-53
2023/09/04 11:17:14;;;;;;;2.10;0.90;;;23.70;99.90;;;;;;5044672;28;20044;-55
2023/09/04 11:19:40;;;;;;;1.45;0.80;;;23.80;99.90;;;;;;5036903;28;20037;-55
2023/09/04 11:22:13;;;;;;;3.70;0.80;;;24.00;99.90;;;;;;5042774;28;20037;-56
2023/09/04 11:24:39;;;;;;;1.90;1.00;;;24.00;99.90;;;;;;5049195;28;20072;-56
2023/09/04 11:27:05;;;;;;;3.65;0.80;;;24.10;99.90;;;;;;5046187;28;20068;-56
2023/09/04 11:29:32;;;;;;;3.45;0.95;;;24.20;99.90;;;;;;5049069;28;20041;-55
2023/09/04 11:31:58;;;;;;;1.73;0.80;;;24.20;99.90;;;;;;5046508;28;20449;-53
2023/09/04 11:34:25;;;;;;;1.83;1.00;;;24.20;99.90;;;;;;5049513;28;20051;-55
2023/09/04 11:36:51;;;;;;;2.70;0.77;;;24.30;99.90;;;;;;5039321;28;20052;-55
2023/09/04 11:39:16;;;;;;;0.90;0.40;;;24.40;99.90;;;;;;5036831;28;20040;-52
2023/09/04 11:41:42;;;;;;;1.83;0.50;;;24.40;99.90;;;;;;5047854;28;20033;-52
2023/09/04 11:44:08;;;;;;;4.30;0.70;;;24.40;99.70;;;;;;5049518;28;20037;-56
2023/09/04 11:46:35;;;;;;;0.90;0.47;;;24.40;99.90;;;;;;5042896;28;20079;-55
2023/09/04 11:49:03;;;;;;;1.38;0.60;;;24.50;99.50;;;;;;4994986;28;20091;-55
2023/09/04 11:51:33;;;;;;;3.42;0.77;;;24.60;99.70;;;;;;5041035;28;20348;-54
2023/09/04 11:53:59;;;;;;;32.58;2.28;;;24.60;99.60;;;;;;5011634;28;20041;-55
2023/09/04 11:56:24;;;;;;;1.00;0.50;;;24.70;99.70;;;;;;5029941;28;20087;-56
2023/09/04 11:58:50;;;;;;;4.03;0.73;;;24.70;98.90;;;;;;5029640;28;20281;-53
2023/09/04 12:01:16;;;;;;;0.70;0.50;;;24.70;99.30;;;;;;5042734;28;20041;-53
2023/09/04 12:03:41;;;;;;;1.50;0.52;;;24.80;98.90;;;;;;5030481;28;20041;-54
2023/09/04 12:06:09;;;;;;;0.88;0.57;;;24.80;99.00;;;;;;5033918;28;20072;-54
2023/09/04 12:08:35;;;;;;;2.08;0.43;;;24.80;99.30;;;;;;5049439;28;20386;-52
2023/09/04 12:11:01;;;;;;;1.45;0.30;;;24.80;98.90;;;;;;5052175;28;20450;-55
2023/09/04 12:13:27;;;;;;;0.73;0.40;;;24.80;98.90;;;;;;5044128;28;20049;-53
2023/09/04 12:16:04;;;;;;;0.85;0.40;;;24.80;98.80;;;;;;5048202;28;20048;-52
2023/09/04 12:18:29;;;;;;;2.00;0.77;;;24.80;98.30;;;;;;5046396;28;20716;-56
2023/09/04 12:20:56;;;;;;;2.80;0.40;;;24.80;98.20;;;;;;5044384;28;20041;-54
2023/09/04 12:23:45;;;;;;;1.92;0.45;;;24.80;98.00;;;;;;5044377;28;20412;-54
2023/09/04 12:26:16;;;;;;;1.83;0.57;;;24.70;98.70;;;;;;5045993;28;20037;-52
2023/09/04 12:28:42;;;;;;;2.85;0.40;;;24.80;98.70;;;;;;5047947;28;20055;-54
2023/09/04 12:31:12;;;;;;;3.33;0.40;;;24.80;98.60;;;;;;5046391;28;20049;-52
2023/09/04 12:33:40;;;;;;;0.70;0.30;;;24.90;98.90;;;;;;5044153;28;20049;-52
2023/09/04 12:36:08;;;;;;;1.20;0.30;;;25.00;98.70;;;;;;5045636;28;20502;-55
2023/09/04 12:38:35;;;;;;;1.38;0.40;;;25.10;98.50;;;;;;5045082;28;20033;-55
2023/09/04 12:41:00;;;;;;;0.60;0.40;;;25.20;98.20;;;;;;5050653;28;20049;-54
2023/09/04 12:43:26;;;;;;;0.80;0.30;;;25.20;97.90;;;;;;5048400;28;20048;-55
2023/09/04 12:45:52;;;;;;;0.63;0.30;;;25.30;98.00;;;;;;5034359;28;20080;-57